sensor_id;sensor_type;location;lat;lon;timestamp;temperature;humidity
3380;DHT22;1703;51.964;7.642;2022-09-01T00:01:27;18.40;99.90
3380;DHT22;1703;51.964;7.642;2022-09-01T00:03:56;18.40;99.90
3380;DHT22;1703;51.964;7.642;2022-09-01T00:06:28;18.40;99.90
3380;DHT22;1703;51.964;7.642;2022-09-01T00:08:58;18.30;99.90
3380;DHT22;1703;51.964;7.642;2022-09-01T00:11:26;18.30;99.90
3380;DHT22;1703;51.964;7.642;2022-09-01T00:13:54;18.30;99.90
3380;DHT22;1703;51.964;7.642;2022-09-01T00:16:22;18.20;99.90
3380;DHT22;1703;51.964;7.642;2022-09-01T00:18:52;18.10;99.90
3380;DHT22;1703;51.964;7.642;2022-09-01T00:21:22;18.20;99.90
3380;DHT22;1703;51.964;7.642;2022-09-01T00:23:49;18.20;99.90
3380;DHT22;1703;51.964;7.642;2022-09-01T00:26:16;18.20;99.90
3380;DHT22;1703;51.964;7.642;2022-09-01T00:28:44;18.10;99.90
3380;DHT22;1703;51.964;7.642;2022-09-01T00:31:11;18.10;99.90
3380;DHT22;1703;51.964;7.642;2022-09-01T00:33:40;18.10;99.90
3380;DHT22;1703;51.964;7.642;2022-09-01T00:36:08;18.10;99.90
3380;DHT22;1703;51.964;7.642;2022-09-01T00:38:35;18.10;99.90
3380;DHT22;1703;51.964;7.642;2022-09-01T00:41:04;18.10;99.90
3380;DHT22;1703;51.964;7.642;2022-09-01T00:43:39;18.10;99.90
3380;DHT22;1703;51.964;7.642;2022-09-01T00:46:08;18.10;99.90
3380;DHT22;1703;51.964;7.642;2022-09-01T00:48:36;18.10;99.90
3380;DHT22;1703;51.964;7.642;2022-09-01T00:51:04;18.10;99.90
3380;DHT22;1703;51.964;7.642;2022-09-01T00:53:33;18.10;99.90
3380;DHT22;1703;51.964;7.642;2022-09-01T00:56:02;18.10;99.90
3380;DHT22;1703;51.964;7.642;2022-09-01T00:58:29;18.00;99.90
3380;DHT22;1703;51.964;7.642;2022-09-01T01:00:56;18.00;99.90
3380;DHT22;1703;51.964;7.642;2022-09-01T01:03:23;18.10;99.90
3380;DHT22;1703;51.964;7.642;2022-09-01T01:05:54;18.00;99.90
3380;DHT22;1703;51.964;7.642;2022-09-01T01:08:26;18.10;99.90
3380;DHT22;1703;51.964;7.642;2022-09-01T01:11:00;18.00;99.90
3380;DHT22;1703;51.964;7.642;2022-09-01T01:13:46;18.00;99.90
3380;DHT22;1703;51.964;7.642;2022-09-01T01:16:13;18.00;99.90
3380;DHT22;1703;51.964;7.642;2022-09-01T01:18:40;18.00;99.90
3380;DHT22;1703;51.964;7.642;2022-09-01T01:21:14;17.90;99.90
3380;DHT22;1703;51.964;7.642;2022-09-01T01:24:05;17.90;99.90
3380;DHT22;1703;51.964;7.642;2022-09-01T01:26:37;17.90;99.90
3380;DHT22;1703;51.964;7.642;2022-09-01T01:29:04;17.90;99.90
3380;DHT22;1703;51.964;7.642;2022-09-01T01:31:35;17.90;99.90
3380;DHT22;1703;51.964;7.642;2022-09-01T01:34:02;17.90;99.90
3380;DHT22;1703;51.964;7.642;2022-09-01T01:36:35;17.90;99.90
3380;DHT22;1703;51.964;7.642;2022-09-01T01:39:07;17.80;99.90
3380;DHT22;1703;51.964;7.642;2022-09-01T01:41:38;17.80;99.90
3380;DHT22;1703;51.964;7.642;2022-09-01T01:44:05;17.80;99.90
3380;DHT22;1703;51.964;7.642;2022-09-01T01:46:34;17.70;99.90
3380;DHT22;1703;51.964;7.642;2022-09-01T01:49:02;17.70;99.90
3380;DHT22;1703;51.964;7.642;2022-09-01T01:51:30;17.70;99.90
3380;DHT22;1703;51.964;7.642;2022-09-01T01:53:59;17.70;99.90
3380;DHT22;1703;51.964;7.642;2022-09-01T01:56:30;17.60;99.90
3380;DHT22;1703;51.964;7.642;2022-09-01T01:59:01;17.60;99.90
3380;DHT22;1703;51.964;7.642;2022-09-01T02:01:29;17.50;99.90
3380;DHT22;1703;51.964;7.642;2022-09-01T02:03:58;17.40;99.90
3380;DHT22;1703;51.964;7.642;2022-09-01T02:06:27;17.30;99.90
3380;DHT22;1703;51.964;7.642;2022-09-01T02:08:56;17.30;99.90
3380;DHT22;1703;51.964;7.642;2022-09-01T02:11:28;17.40;99.90
3380;DHT22;1703;51.964;7.642;2022-09-01T02:13:58;17.40;99.90
3380;DHT22;1703;51.964;7.642;2022-09-01T02:16:29;17.30;99.90
3380;DHT22;1703;51.964;7.642;2022-09-01T02:18:58;17.20;99.90
3380;DHT22;1703;51.964;7.642;2022-09-01T02:21:26;17.20;99.90
3380;DHT22;1703;51.964;7.642;2022-09-01T02:23:55;17.20;99.90
3380;DHT22;1703;51.964;7.642;2022-09-01T02:26:25;17.20;99.90
3380;DHT22;1703;51.964;7.642;2022-09-01T02:28:58;17.20;99.90
3380;DHT22;1703;51.964;7.642;2022-09-01T02:31:29;17.30;99.90
3380;DHT22;1703;51.964;7.642;2022-09-01T02:34:00;17.20;99.90
3380;DHT22;1703;51.964;7.642;2022-09-01T02:36:27;17.20;99.90
3380;DHT22;1703;51.964;7.642;2022-09-01T02:38:57;17.20;99.90
3380;DHT22;1703;51.964;7.642;2022-09-01T02:41:25;17.10;99.90
3380;DHT22;1703;51.964;7.642;2022-09-01T02:43:57;17.10;99.90
3380;DHT22;1703;51.964;7.642;2022-09-01T02:46:29;17.10;99.90
3380;DHT22;1703;51.964;7.642;2022-09-01T02:48:56;17.00;99.90
3380;DHT22;1703;51.964;7.642;2022-09-01T02:51:25;17.10;99.90
3380;DHT22;1703;51.964;7.642;2022-09-01T02:53:52;17.10;99.90
3380;DHT22;1703;51.964;7.642;2022-09-01T02:56:20;17.10;99.90
3380;DHT22;1703;51.964;7.642;2022-09-01T02:58:49;17.00;99.90
3380;DHT22;1703;51.964;7.642;2022-09-01T03:01:19;16.90;99.90
3380;DHT22;1703;51.964;7.642;2022-09-01T03:03:50;16.90;99.90
3380;DHT22;1703;51.964;7.642;2022-09-01T03:06:18;16.90;99.90
3380;DHT22;1703;51.964;7.642;2022-09-01T03:08:49;16.90;99.90
3380;DHT22;1703;51.964;7.642;2022-09-01T03:11:17;16.90;99.90
3380;DHT22;1703;51.964;7.642;2022-09-01T03:13:44;16.90;99.90
3380;DHT22;1703;51.964;7.642;2022-09-01T03:16:12;16.90;99.90
3380;DHT22;1703;51.964;7.642;2022-09-01T03:18:39;16.80;99.90
3380;DHT22;1703;51.964;7.642;2022-09-01T03:21:09;16.80;99.90
3380;DHT22;1703;51.964;7.642;2022-09-01T03:23:42;16.80;99.90
3380;DHT22;1703;51.964;7.642;2022-09-01T03:26:09;16.80;99.90
3380;DHT22;1703;51.964;7.642;2022-09-01T03:28:36;16.80;99.90
3380;DHT22;1703;51.964;7.642;2022-09-01T03:31:03;16.70;99.90
3380;DHT22;1703;51.964;7.642;2022-09-01T03:33:31;16.70;99.90
3380;DHT22;1703;51.964;7.642;2022-09-01T03:35:59;16.70;99.90
3380;DHT22;1703;51.964;7.642;2022-09-01T03:38:27;16.80;99.90
3380;DHT22;1703;51.964;7.642;2022-09-01T03:40:58;16.80;99.90
3380;DHT22;1703;51.964;7.642;2022-09-01T03:43:27;16.80;99.90
3380;DHT22;1703;51.964;7.642;2022-09-01T03:45:56;16.80;99.90
3380;DHT22;1703;51.964;7.642;2022-09-01T03:48:26;16.90;99.90
3380;DHT22;1703;51.964;7.642;2022-09-01T03:50:55;16.90;99.90
3380;DHT22;1703;51.964;7.642;2022-09-01T03:53:31;16.90;99.90
3380;DHT22;1703;51.964;7.642;2022-09-01T03:56:03;16.90;99.90
3380;DHT22;1703;51.964;7.642;2022-09-01T03:58:31;16.80;99.90
3380;DHT22;1703;51.964;7.642;2022-09-01T04:00:58;16.70;99.90
3380;DHT22;1703;51.964;7.642;2022-09-01T04:03:29;16.70;99.90
3380;DHT22;1703;51.964;7.642;2022-09-01T04:05:57;16.60;99.90
3380;DHT22;1703;51.964;7.642;2022-09-01T04:08:25;16.50;99.90
3380;DHT22;1703;51.964;7.642;2022-09-01T04:10:58;16.50;99.90
3380;DHT22;1703;51.964;7.642;2022-09-01T04:13:27;16.50;99.90
3380;DHT22;1703;51.964;7.642;2022-09-01T04:15:55;16.50;99.90
3380;DHT22;1703;51.964;7.642;2022-09-01T04:18:23;16.60;99.90
3380;DHT22;1703;51.964;7.642;2022-09-01T04:20:50;16.60;99.90
3380;DHT22;1703;51.964;7.642;2022-09-01T04:23:19;16.60;99.90
3380;DHT22;1703;51.964;7.642;2022-09-01T04:25:53;16.70;99.90
3380;DHT22;1703;51.964;7.642;2022-09-01T04:28:24;16.60;99.90
3380;DHT22;1703;51.964;7.642;2022-09-01T04:30:52;16.60;99.90
3380;DHT22;1703;51.964;7.642;2022-09-01T04:33:24;16.50;99.90
3380;DHT22;1703;51.964;7.642;2022-09-01T04:35:52;16.50;99.90
3380;DHT22;1703;51.964;7.642;2022-09-01T04:38:22;16.50;99.90
3380;DHT22;1703;51.964;7.642;2022-09-01T04:40:51;16.50;99.90
3380;DHT22;1703;51.964;7.642;2022-09-01T04:43:18;16.50;99.90
3380;DHT22;1703;51.964;7.642;2022-09-01T04:45:47;16.50;99.90
3380;DHT22;1703;51.964;7.642;2022-09-01T04:48:17;16.50;99.90
3380;DHT22;1703;51.964;7.642;2022-09-01T04:50:45;16.50;99.90
3380;DHT22;1703;51.964;7.642;2022-09-01T04:53:18;16.40;99.90
3380;DHT22;1703;51.964;7.642;2022-09-01T04:55:47;16.40;99.90
3380;DHT22;1703;51.964;7.642;2022-09-01T04:58:17;16.40;99.90
3380;DHT22;1703;51.964;7.642;2022-09-01T05:00:45;16.40;99.90
3380;DHT22;1703;51.964;7.642;2022-09-01T05:03:17;16.30;99.90
3380;DHT22;1703;51.964;7.642;2022-09-01T05:05:57;16.30;99.90
3380;DHT22;1703;51.964;7.642;2022-09-01T05:08:28;16.20;99.90
3380;DHT22;1703;51.964;7.642;2022-09-01T05:10:58;16.20;99.90
3380;DHT22;1703;51.964;7.642;2022-09-01T05:13:38;16.20;99.90
3380;DHT22;1703;51.964;7.642;2022-09-01T05:16:06;16.30;99.90
3380;DHT22;1703;51.964;7.642;2022-09-01T05:18:39;16.30;99.90
3380;DHT22;1703;51.964;7.642;2022-09-01T05:21:10;16.30;99.90
3380;DHT22;1703;51.964;7.642;2022-09-01T05:23:37;16.20;99.90
3380;DHT22;1703;51.964;7.642;2022-09-01T05:26:10;16.20;99.90
3380;DHT22;1703;51.964;7.642;2022-09-01T05:28:42;16.20;99.90
3380;DHT22;1703;51.964;7.642;2022-09-01T05:31:10;16.20;99.90
3380;DHT22;1703;51.964;7.642;2022-09-01T05:33:39;16.30;99.90
3380;DHT22;1703;51.964;7.642;2022-09-01T05:36:12;16.30;99.90
3380;DHT22;1703;51.964;7.642;2022-09-01T05:38:40;16.30;99.90
3380;DHT22;1703;51.964;7.642;2022-09-01T05:41:10;16.30;99.90
3380;DHT22;1703;51.964;7.642;2022-09-01T05:43:40;16.40;99.90
3380;DHT22;1703;51.964;7.642;2022-09-01T05:46:14;16.30;99.90
3380;DHT22;1703;51.964;7.642;2022-09-01T05:48:44;16.30;99.90
3380;DHT22;1703;51.964;7.642;2022-09-01T05:51:16;16.40;99.90
3380;DHT22;1703;51.964;7.642;2022-09-01T05:53:44;16.40;99.90
3380;DHT22;1703;51.964;7.642;2022-09-01T05:56:12;16.40;99.90
3380;DHT22;1703;51.964;7.642;2022-09-01T05:58:40;16.40;99.90
3380;DHT22;1703;51.964;7.642;2022-09-01T06:01:15;16.40;99.90
3380;DHT22;1703;51.964;7.642;2022-09-01T06:03:49;16.50;99.90
3380;DHT22;1703;51.964;7.642;2022-09-01T06:06:19;16.60;99.90
3380;DHT22;1703;51.964;7.642;2022-09-01T06:08:48;16.60;99.90
3380;DHT22;1703;51.964;7.642;2022-09-01T06:11:15;16.60;99.90
3380;DHT22;1703;51.964;7.642;2022-09-01T06:13:42;16.60;99.90
3380;DHT22;1703;51.964;7.642;2022-09-01T06:16:12;16.60;99.90
3380;DHT22;1703;51.964;7.642;2022-09-01T06:18:39;16.70;99.90
3380;DHT22;1703;51.964;7.642;2022-09-01T06:21:10;16.80;99.90
3380;DHT22;1703;51.964;7.642;2022-09-01T06:23:41;16.80;99.90
3380;DHT22;1703;51.964;7.642;2022-09-01T06:26:15;16.90;99.90
3380;DHT22;1703;51.964;7.642;2022-09-01T06:28:43;17.00;99.90
3380;DHT22;1703;51.964;7.642;2022-09-01T06:31:11;17.00;99.90
3380;DHT22;1703;51.964;7.642;2022-09-01T06:33:39;17.10;99.90
3380;DHT22;1703;51.964;7.642;2022-09-01T06:36:08;17.10;99.90
3380;DHT22;1703;51.964;7.642;2022-09-01T06:38:36;17.20;99.90
3380;DHT22;1703;51.964;7.642;2022-09-01T06:41:05;17.30;99.90
3380;DHT22;1703;51.964;7.642;2022-09-01T06:43:38;17.30;99.90
3380;DHT22;1703;51.964;7.642;2022-09-01T06:46:07;17.30;99.90
3380;DHT22;1703;51.964;7.642;2022-09-01T06:48:35;17.40;99.90
3380;DHT22;1703;51.964;7.642;2022-09-01T06:51:09;17.50;99.90
3380;DHT22;1703;51.964;7.642;2022-09-01T06:53:37;17.60;99.90
3380;DHT22;1703;51.964;7.642;2022-09-01T06:56:06;17.60;99.90
3380;DHT22;1703;51.964;7.642;2022-09-01T06:58:34;17.70;99.90
3380;DHT22;1703;51.964;7.642;2022-09-01T07:01:06;17.70;99.90
3380;DHT22;1703;51.964;7.642;2022-09-01T07:03:41;17.80;99.90
3380;DHT22;1703;51.964;7.642;2022-09-01T07:06:31;17.90;99.90
3380;DHT22;1703;51.964;7.642;2022-09-01T07:09:14;18.00;99.90
3380;DHT22;1703;51.964;7.642;2022-09-01T07:11:44;18.00;99.90
3380;DHT22;1703;51.964;7.642;2022-09-01T07:14:12;18.10;99.90
3380;DHT22;1703;51.964;7.642;2022-09-01T07:16:41;18.20;99.90
3380;DHT22;1703;51.964;7.642;2022-09-01T07:19:09;18.20;99.90
3380;DHT22;1703;51.964;7.642;2022-09-01T07:21:44;18.20;99.90
3380;DHT22;1703;51.964;7.642;2022-09-01T07:24:14;18.30;99.90
3380;DHT22;1703;51.964;7.642;2022-09-01T07:27:18;18.30;99.90
3380;DHT22;1703;51.964;7.642;2022-09-01T07:29:48;18.50;99.90
3380;DHT22;1703;51.964;7.642;2022-09-01T07:32:20;18.50;99.90
3380;DHT22;1703;51.964;7.642;2022-09-01T07:34:48;18.60;99.90
3380;DHT22;1703;51.964;7.642;2022-09-01T07:37:17;18.70;99.90
3380;DHT22;1703;51.964;7.642;2022-09-01T07:39:48;18.70;99.90
3380;DHT22;1703;51.964;7.642;2022-09-01T07:42:41;18.80;99.90
3380;DHT22;1703;51.964;7.642;2022-09-01T07:45:35;18.90;99.90
3380;DHT22;1703;51.964;7.642;2022-09-01T07:48:06;19.00;99.90
3380;DHT22;1703;51.964;7.642;2022-09-01T07:50:42;19.10;99.90
3380;DHT22;1703;51.964;7.642;2022-09-01T07:53:15;19.10;99.90
3380;DHT22;1703;51.964;7.642;2022-09-01T07:55:45;19.20;99.90
3380;DHT22;1703;51.964;7.642;2022-09-01T07:58:16;19.40;99.90
3380;DHT22;1703;51.964;7.642;2022-09-01T08:00:45;19.40;99.90
3380;DHT22;1703;51.964;7.642;2022-09-01T08:03:18;19.50;99.90
3380;DHT22;1703;51.964;7.642;2022-09-01T08:05:46;19.50;99.90
3380;DHT22;1703;51.964;7.642;2022-09-01T08:08:20;19.60;99.90
3380;DHT22;1703;51.964;7.642;2022-09-01T08:10:47;19.70;99.90
3380;DHT22;1703;51.964;7.642;2022-09-01T08:13:16;19.70;99.90
3380;DHT22;1703;51.964;7.642;2022-09-01T08:15:43;19.80;99.90
3380;DHT22;1703;51.964;7.642;2022-09-01T08:18:10;19.80;99.90
3380;DHT22;1703;51.964;7.642;2022-09-01T08:20:39;19.90;99.90
3380;DHT22;1703;51.964;7.642;2022-09-01T08:23:34;20.00;99.90
3380;DHT22;1703;51.964;7.642;2022-09-01T08:26:05;19.90;99.90
3380;DHT22;1703;51.964;7.642;2022-09-01T08:28:32;20.00;99.90
3380;DHT22;1703;51.964;7.642;2022-09-01T08:30:59;20.10;99.90
3380;DHT22;1703;51.964;7.642;2022-09-01T08:33:29;20.20;99.90
3380;DHT22;1703;51.964;7.642;2022-09-01T08:36:00;20.20;99.90
3380;DHT22;1703;51.964;7.642;2022-09-01T08:38:27;20.30;99.90
3380;DHT22;1703;51.964;7.642;2022-09-01T08:40:58;20.40;99.90
3380;DHT22;1703;51.964;7.642;2022-09-01T08:43:47;20.50;99.90
3380;DHT22;1703;51.964;7.642;2022-09-01T08:46:20;20.40;99.90
3380;DHT22;1703;51.964;7.642;2022-09-01T08:48:51;20.50;99.90
3380;DHT22;1703;51.964;7.642;2022-09-01T08:51:22;20.70;99.90
3380;DHT22;1703;51.964;7.642;2022-09-01T08:54:02;20.70;99.90
3380;DHT22;1703;51.964;7.642;2022-09-01T08:56:31;20.80;99.90
3380;DHT22;1703;51.964;7.642;2022-09-01T08:59:00;20.80;99.90
3380;DHT22;1703;51.964;7.642;2022-09-01T09:02:03;20.80;99.90
3380;DHT22;1703;51.964;7.642;2022-09-01T09:04:53;20.90;99.90
3380;DHT22;1703;51.964;7.642;2022-09-01T09:07:37;21.00;99.90
3380;DHT22;1703;51.964;7.642;2022-09-01T09:10:11;21.10;99.90
3380;DHT22;1703;51.964;7.642;2022-09-01T09:12:59;21.10;99.90
3380;DHT22;1703;51.964;7.642;2022-09-01T09:15:32;21.20;99.90
3380;DHT22;1703;51.964;7.642;2022-09-01T09:18:12;21.30;99.90
3380;DHT22;1703;51.964;7.642;2022-09-01T09:20:41;21.40;99.90
3380;DHT22;1703;51.964;7.642;2022-09-01T09:23:15;21.50;99.90
3380;DHT22;1703;51.964;7.642;2022-09-01T09:25:47;21.50;99.90
3380;DHT22;1703;51.964;7.642;2022-09-01T09:28:16;21.60;99.90
3380;DHT22;1703;51.964;7.642;2022-09-01T09:30:43;21.70;99.90
3380;DHT22;1703;51.964;7.642;2022-09-01T09:33:33;21.80;99.90
3380;DHT22;1703;51.964;7.642;2022-09-01T09:36:15;21.80;99.90
3380;DHT22;1703;51.964;7.642;2022-09-01T09:38:43;21.90;99.90
3380;DHT22;1703;51.964;7.642;2022-09-01T09:41:15;22.00;99.90
3380;DHT22;1703;51.964;7.642;2022-09-01T09:43:46;22.10;99.90
3380;DHT22;1703;51.964;7.642;2022-09-01T09:46:23;22.10;99.90
3380;DHT22;1703;51.964;7.642;2022-09-01T09:49:08;22.20;99.90
3380;DHT22;1703;51.964;7.642;2022-09-01T09:51:37;22.20;99.90
3380;DHT22;1703;51.964;7.642;2022-09-01T09:54:19;22.30;99.90
3380;DHT22;1703;51.964;7.642;2022-09-01T09:56:48;22.40;99.90
3380;DHT22;1703;51.964;7.642;2022-09-01T09:59:21;22.50;99.90
3380;DHT22;1703;51.964;7.642;2022-09-01T10:01:49;22.50;99.90
3380;DHT22;1703;51.964;7.642;2022-09-01T10:04:31;22.40;99.90
3380;DHT22;1703;51.964;7.642;2022-09-01T10:06:59;22.30;99.90
3380;DHT22;1703;51.964;7.642;2022-09-01T10:09:36;22.30;99.90
3380;DHT22;1703;51.964;7.642;2022-09-01T10:12:04;22.40;99.90
3380;DHT22;1703;51.964;7.642;2022-09-01T10:14:40;22.60;99.90
3380;DHT22;1703;51.964;7.642;2022-09-01T10:17:11;22.70;99.90
3380;DHT22;1703;51.964;7.642;2022-09-01T10:19:45;22.80;99.90
3380;DHT22;1703;51.964;7.642;2022-09-01T10:22:13;22.90;99.90
3380;DHT22;1703;51.964;7.642;2022-09-01T10:24:40;22.80;99.90
3380;DHT22;1703;51.964;7.642;2022-09-01T10:27:16;22.90;99.90
3380;DHT22;1703;51.964;7.642;2022-09-01T10:29:47;23.00;99.90
3380;DHT22;1703;51.964;7.642;2022-09-01T10:32:19;23.10;99.90
3380;DHT22;1703;51.964;7.642;2022-09-01T10:34:48;23.00;99.90
3380;DHT22;1703;51.964;7.642;2022-09-01T10:37:15;23.00;99.90
3380;DHT22;1703;51.964;7.642;2022-09-01T10:42:55;23.10;99.90
3380;DHT22;1703;51.964;7.642;2022-09-01T10:45:31;23.00;99.90
3380;DHT22;1703;51.964;7.642;2022-09-01T10:51:40;23.20;99.90
3380;DHT22;1703;51.964;7.642;2022-09-01T10:54:07;23.20;99.90
3380;DHT22;1703;51.964;7.642;2022-09-01T10:56:40;23.20;99.90
3380;DHT22;1703;51.964;7.642;2022-09-01T10:59:27;23.40;99.90
3380;DHT22;1703;51.964;7.642;2022-09-01T11:02:12;23.40;99.90
3380;DHT22;1703;51.964;7.642;2022-09-01T11:05:09;23.40;99.90
3380;DHT22;1703;51.964;7.642;2022-09-01T11:07:36;23.60;99.90
3380;DHT22;1703;51.964;7.642;2022-09-01T11:10:27;23.80;99.90
3380;DHT22;1703;51.964;7.642;2022-09-01T11:16:23;23.90;99.90
3380;DHT22;1703;51.964;7.642;2022-09-01T11:18:52;24.00;99.90
3380;DHT22;1703;51.964;7.642;2022-09-01T11:21:23;24.10;99.90
3380;DHT22;1703;51.964;7.642;2022-09-01T11:23:54;24.10;99.90
3380;DHT22;1703;51.964;7.642;2022-09-01T11:26:45;24.10;99.90
3380;DHT22;1703;51.964;7.642;2022-09-01T11:32:13;24.00;99.90
3380;DHT22;1703;51.964;7.642;2022-09-01T11:34:43;23.90;99.90
3380;DHT22;1703;51.964;7.642;2022-09-01T11:37:14;24.00;99.90
3380;DHT22;1703;51.964;7.642;2022-09-01T11:39:47;24.00;99.90
3380;DHT22;1703;51.964;7.642;2022-09-01T11:42:18;23.90;99.90
3380;DHT22;1703;51.964;7.642;2022-09-01T11:44:51;23.80;99.90
3380;DHT22;1703;51.964;7.642;2022-09-01T11:47:22;23.90;99.90
3380;DHT22;1703;51.964;7.642;2022-09-01T11:49:55;24.00;99.90
3380;DHT22;1703;51.964;7.642;2022-09-01T11:52:25;24.10;99.90
3380;DHT22;1703;51.964;7.642;2022-09-01T11:54:55;24.30;99.90
3380;DHT22;1703;51.964;7.642;2022-09-01T11:57:28;24.40;99.90
3380;DHT22;1703;51.964;7.642;2022-09-01T11:59:56;24.40;99.90
3380;DHT22;1703;51.964;7.642;2022-09-01T12:02:25;24.40;99.90
3380;DHT22;1703;51.964;7.642;2022-09-01T12:04:56;24.40;99.90
3380;DHT22;1703;51.964;7.642;2022-09-01T12:07:37;24.30;99.90
3380;DHT22;1703;51.964;7.642;2022-09-01T12:10:14;24.30;99.90
3380;DHT22;1703;51.964;7.642;2022-09-01T12:12:42;24.30;99.90
3380;DHT22;1703;51.964;7.642;2022-09-01T12:15:17;24.20;99.90
3380;DHT22;1703;51.964;7.642;2022-09-01T12:17:44;24.20;99.90
3380;DHT22;1703;51.964;7.642;2022-09-01T12:20:25;24.10;99.90
3380;DHT22;1703;51.964;7.642;2022-09-01T12:22:53;24.10;99.90
3380;DHT22;1703;51.964;7.642;2022-09-01T12:25:22;24.10;99.70
3380;DHT22;1703;51.964;7.642;2022-09-01T12:27:50;24.00;99.30
3380;DHT22;1703;51.964;7.642;2022-09-01T12:30:18;24.00;99.00
3380;DHT22;1703;51.964;7.642;2022-09-01T12:32:46;23.90;99.00
3380;DHT22;1703;51.964;7.642;2022-09-01T12:35:15;24.00;99.30
3380;DHT22;1703;51.964;7.642;2022-09-01T12:37:45;24.00;99.40
3380;DHT22;1703;51.964;7.642;2022-09-01T12:40:24;24.00;99.60
3380;DHT22;1703;51.964;7.642;2022-09-01T12:42:52;24.10;99.10
3380;DHT22;1703;51.964;7.642;2022-09-01T12:45:39;24.10;99.60
3380;DHT22;1703;51.964;7.642;2022-09-01T12:48:18;24.10;98.80
3380;DHT22;1703;51.964;7.642;2022-09-01T12:50:49;24.00;98.10
3380;DHT22;1703;51.964;7.642;2022-09-01T12:53:23;24.00;98.50
3380;DHT22;1703;51.964;7.642;2022-09-01T12:56:09;24.10;98.60
3380;DHT22;1703;51.964;7.642;2022-09-01T12:58:44;24.20;97.60
3380;DHT22;1703;51.964;7.642;2022-09-01T13:01:25;24.10;96.90
3380;DHT22;1703;51.964;7.642;2022-09-01T13:04:12;24.10;96.90
3380;DHT22;1703;51.964;7.642;2022-09-01T13:06:39;24.10;97.00
3380;DHT22;1703;51.964;7.642;2022-09-01T13:09:07;24.10;96.60
3380;DHT22;1703;51.964;7.642;2022-09-01T13:11:34;24.10;97.00
3380;DHT22;1703;51.964;7.642;2022-09-01T13:14:01;24.20;96.20
3380;DHT22;1703;51.964;7.642;2022-09-01T13:16:28;24.20;95.90
3380;DHT22;1703;51.964;7.642;2022-09-01T13:18:55;24.20;95.70
3380;DHT22;1703;51.964;7.642;2022-09-01T13:21:21;24.30;95.60
3380;DHT22;1703;51.964;7.642;2022-09-01T13:23:48;24.50;95.40
3380;DHT22;1703;51.964;7.642;2022-09-01T13:26:17;24.50;95.40
3380;DHT22;1703;51.964;7.642;2022-09-01T13:28:44;24.50;95.60
3380;DHT22;1703;51.964;7.642;2022-09-01T13:31:11;24.60;95.50
3380;DHT22;1703;51.964;7.642;2022-09-01T13:33:38;24.60;94.50
3380;DHT22;1703;51.964;7.642;2022-09-01T13:36:05;24.40;95.10
3380;DHT22;1703;51.964;7.642;2022-09-01T13:38:32;24.50;96.10
3380;DHT22;1703;51.964;7.642;2022-09-01T13:40:59;25.00;94.90
3380;DHT22;1703;51.964;7.642;2022-09-01T13:43:28;26.00;94.80
3380;DHT22;1703;51.964;7.642;2022-09-01T13:45:56;27.40;92.80
3380;DHT22;1703;51.964;7.642;2022-09-01T13:48:23;28.80;90.90
3380;DHT22;1703;51.964;7.642;2022-09-01T13:50:50;30.30;83.70
3380;DHT22;1703;51.964;7.642;2022-09-01T13:53:18;31.50;75.60
3380;DHT22;1703;51.964;7.642;2022-09-01T13:55:46;32.20;70.20
3380;DHT22;1703;51.964;7.642;2022-09-01T13:58:14;33.00;65.70
3380;DHT22;1703;51.964;7.642;2022-09-01T14:00:44;33.80;62.80
3380;DHT22;1703;51.964;7.642;2022-09-01T14:03:14;34.20;60.70
3380;DHT22;1703;51.964;7.642;2022-09-01T14:05:44;35.00;54.70
3380;DHT22;1703;51.964;7.642;2022-09-01T14:08:12;35.20;52.60
3380;DHT22;1703;51.964;7.642;2022-09-01T14:10:41;35.50;53.00
3380;DHT22;1703;51.964;7.642;2022-09-01T14:13:08;35.90;52.00
3380;DHT22;1703;51.964;7.642;2022-09-01T14:15:35;36.30;50.60
3380;DHT22;1703;51.964;7.642;2022-09-01T14:18:04;36.50;47.00
3380;DHT22;1703;51.964;7.642;2022-09-01T14:20:33;36.30;47.40
3380;DHT22;1703;51.964;7.642;2022-09-01T14:23:02;36.20;47.20
3380;DHT22;1703;51.964;7.642;2022-09-01T14:25:30;36.60;44.80
3380;DHT22;1703;51.964;7.642;2022-09-01T14:27:58;36.70;43.90
3380;DHT22;1703;51.964;7.642;2022-09-01T14:30:27;36.50;41.70
3380;DHT22;1703;51.964;7.642;2022-09-01T14:32:54;35.70;42.20
3380;DHT22;1703;51.964;7.642;2022-09-01T14:35:24;34.90;42.80
3380;DHT22;1703;51.964;7.642;2022-09-01T14:37:52;33.90;43.30
3380;DHT22;1703;51.964;7.642;2022-09-01T14:40:20;32.70;44.00
3380;DHT22;1703;51.964;7.642;2022-09-01T14:42:49;32.00;45.50
3380;DHT22;1703;51.964;7.642;2022-09-01T14:45:19;31.40;46.00
3380;DHT22;1703;51.964;7.642;2022-09-01T14:47:47;30.80;47.20
3380;DHT22;1703;51.964;7.642;2022-09-01T14:50:14;30.10;48.10
3380;DHT22;1703;51.964;7.642;2022-09-01T14:52:43;29.60;49.80
3380;DHT22;1703;51.964;7.642;2022-09-01T14:55:10;29.10;50.20
3380;DHT22;1703;51.964;7.642;2022-09-01T14:57:37;28.60;51.40
3380;DHT22;1703;51.964;7.642;2022-09-01T15:00:05;28.20;52.10
3380;DHT22;1703;51.964;7.642;2022-09-01T15:02:34;27.80;51.60
3380;DHT22;1703;51.964;7.642;2022-09-01T15:05:01;27.50;52.80
3380;DHT22;1703;51.964;7.642;2022-09-01T15:07:29;27.20;54.50
3380;DHT22;1703;51.964;7.642;2022-09-01T15:09:57;26.90;54.90
3380;DHT22;1703;51.964;7.642;2022-09-01T15:12:24;26.50;56.50
3380;DHT22;1703;51.964;7.642;2022-09-01T15:14:55;26.40;56.10
3380;DHT22;1703;51.964;7.642;2022-09-01T15:17:22;26.30;56.50
3380;DHT22;1703;51.964;7.642;2022-09-01T15:19:49;26.20;56.70
3380;DHT22;1703;51.964;7.642;2022-09-01T15:22:16;25.90;57.40
3380;DHT22;1703;51.964;7.642;2022-09-01T15:24:43;25.90;57.30
3380;DHT22;1703;51.964;7.642;2022-09-01T15:27:11;25.90;57.20
3380;DHT22;1703;51.964;7.642;2022-09-01T15:29:38;25.70;57.30
3380;DHT22;1703;51.964;7.642;2022-09-01T15:32:09;25.60;58.70
3380;DHT22;1703;51.964;7.642;2022-09-01T15:34:36;25.60;58.90
3380;DHT22;1703;51.964;7.642;2022-09-01T15:37:03;25.50;58.90
3380;DHT22;1703;51.964;7.642;2022-09-01T15:39:31;25.30;59.20
3380;DHT22;1703;51.964;7.642;2022-09-01T15:41:58;25.30;59.20
3380;DHT22;1703;51.964;7.642;2022-09-01T15:44:27;25.30;59.20
3380;DHT22;1703;51.964;7.642;2022-09-01T15:46:55;25.30;60.10
3380;DHT22;1703;51.964;7.642;2022-09-01T15:49:22;25.20;60.00
3380;DHT22;1703;51.964;7.642;2022-09-01T15:51:48;25.10;60.80
3380;DHT22;1703;51.964;7.642;2022-09-01T15:54:17;25.10;62.30
3380;DHT22;1703;51.964;7.642;2022-09-01T15:56:45;25.00;62.00
3380;DHT22;1703;51.964;7.642;2022-09-01T15:59:14;25.00;62.40
3380;DHT22;1703;51.964;7.642;2022-09-01T16:01:44;24.80;62.70
3380;DHT22;1703;51.964;7.642;2022-09-01T16:04:15;24.80;63.00
3380;DHT22;1703;51.964;7.642;2022-09-01T16:06:43;24.70;63.10
3380;DHT22;1703;51.964;7.642;2022-09-01T16:09:10;24.60;63.40
3380;DHT22;1703;51.964;7.642;2022-09-01T16:11:39;24.60;64.80
3380;DHT22;1703;51.964;7.642;2022-09-01T16:14:06;24.50;65.10
3380;DHT22;1703;51.964;7.642;2022-09-01T16:16:44;24.50;65.40
3380;DHT22;1703;51.964;7.642;2022-09-01T16:19:32;24.50;65.00
3380;DHT22;1703;51.964;7.642;2022-09-01T16:22:10;24.40;65.40
3380;DHT22;1703;51.964;7.642;2022-09-01T16:24:40;24.40;65.40
3380;DHT22;1703;51.964;7.642;2022-09-01T16:27:11;24.40;65.80
3380;DHT22;1703;51.964;7.642;2022-09-01T16:29:43;24.30;66.60
3380;DHT22;1703;51.964;7.642;2022-09-01T16:32:13;24.30;66.30
3380;DHT22;1703;51.964;7.642;2022-09-01T16:34:40;24.30;66.10
3380;DHT22;1703;51.964;7.642;2022-09-01T16:37:20;24.20;66.80
3380;DHT22;1703;51.964;7.642;2022-09-01T16:39:56;24.30;67.00